createdAt,value
2022-10-26T00:01:22.821Z,99082.72
2022-10-26T00:03:50.823Z,99083.72
2022-10-26T00:06:20.690Z,99065.81
2022-10-26T00:08:49.555Z,99054.19
2022-10-26T00:11:18.246Z,99020.53
2022-10-26T00:13:47.344Z,99015.22
2022-10-26T00:16:19.405Z,99019.69
2022-10-26T00:18:47.848Z,99009.88
2022-10-26T00:21:15.810Z,99001.53
2022-10-26T00:23:44.135Z,99002.22
2022-10-26T00:26:12.618Z,98982.38
2022-10-26T00:28:43.300Z,99000.53
2022-10-26T00:31:15.424Z,98992.84
2022-10-26T00:33:44.721Z,98958.22
2022-10-26T00:36:16.807Z,98955.97
2022-10-26T00:38:49.140Z,98962.66
2022-10-26T00:41:17.896Z,98956.50
2022-10-26T00:43:46.157Z,98942.53
2022-10-26T00:46:18.284Z,98953.75
2022-10-26T00:48:51.444Z,98952.47
2022-10-26T00:51:26.657Z,98940.03
2022-10-26T00:53:55.708Z,98939.19
2022-10-26T00:56:24.653Z,98930.53
2022-10-26T00:58:53.419Z,98910.56
2022-10-26T01:01:21.705Z,98925.50
2022-10-26T01:03:51.148Z,98893.53
2022-10-26T01:06:20.022Z,98894.91
2022-10-26T01:08:49.205Z,98887.25
2022-10-26T01:11:17.651Z,98890.59
2022-10-26T01:13:47.663Z,98842.81
2022-10-26T01:16:42.051Z,98851.91
2022-10-26T01:19:45.973Z,98853.28
2022-10-26T01:22:22.990Z,98836.78
2022-10-26T01:25:13.776Z,98836.94
2022-10-26T01:27:42.773Z,98823.94
2022-10-26T01:30:18.812Z,98832.47
2022-10-26T01:32:58.704Z,98836.53
2022-10-26T01:35:32.464Z,98822.94
2022-10-26T01:38:10.354Z,98798.81
2022-10-26T01:40:46.447Z,98814.44
2022-10-26T01:43:16.665Z,98800.63
2022-10-26T01:45:49.712Z,98797.00
2022-10-26T01:48:21.693Z,98767.75
2022-10-26T01:50:53.400Z,98745.38
2022-10-26T01:53:21.871Z,98714.69
2022-10-26T01:55:51.675Z,98748.41
2022-10-26T01:58:50.001Z,98738.41
2022-10-26T02:01:51.500Z,98734.75
2022-10-26T02:04:31.631Z,98695.13
2022-10-26T02:07:04.779Z,98718.28
2022-10-26T02:09:42.877Z,98700.75
2022-10-26T02:12:21.171Z,98688.81
2022-10-26T02:14:52.229Z,98680.34
2022-10-26T02:17:39.202Z,98644.22
2022-10-26T02:20:10.434Z,98654.41
2022-10-26T02:22:44.947Z,98627.94
2022-10-26T02:25:18.326Z,98643.25
2022-10-26T02:27:51.670Z,98577.56
2022-10-26T02:30:20.604Z,98580.88
2022-10-26T02:32:53.716Z,98580.06
2022-10-26T02:35:24.755Z,98556.78
2022-10-26T02:37:55.727Z,98525.88
2022-10-26T02:40:26.795Z,98526.53
2022-10-26T02:42:57.129Z,98503.28
2022-10-26T02:45:31.799Z,98491.56
2022-10-26T02:48:01.052Z,98512.75
2022-10-26T02:50:34.810Z,98485.31
2022-10-26T02:53:11.601Z,98476.28
2022-10-26T02:55:45.387Z,98474.84
2022-10-26T02:58:19.981Z,98480.97
2022-10-26T03:00:48.267Z,98448.69
2022-10-26T03:03:18.473Z,98459.38
2022-10-26T03:05:46.577Z,98466.66
2022-10-26T03:08:14.834Z,98459.22
2022-10-26T03:10:44.589Z,98448.09
2022-10-26T03:13:14.353Z,98440.06
2022-10-26T03:15:42.754Z,98442.78
2022-10-26T03:18:10.746Z,98423.84
2022-10-26T03:20:40.135Z,98418.19
2022-10-26T03:23:08.230Z,98401.91
2022-10-26T03:25:38.378Z,98411.06
2022-10-26T03:28:07.481Z,98435.13
2022-10-26T03:30:35.383Z,98412.19
2022-10-26T03:33:03.170Z,98400.22
2022-10-26T03:35:31.114Z,98443.78
2022-10-26T03:38:00.416Z,98465.38
2022-10-26T03:40:28.469Z,98441.44
2022-10-26T03:42:56.351Z,98420.16
2022-10-26T03:45:24.469Z,98416.66
2022-10-26T03:47:52.740Z,98446.44
2022-10-26T03:50:23.330Z,98446.13
2022-10-26T03:52:52.034Z,98454.75
2022-10-26T03:55:21.503Z,98437.41
2022-10-26T03:57:49.578Z,98438.78
2022-10-26T04:00:19.050Z,98417.19
2022-10-26T04:02:54.564Z,98430.13
2022-10-26T04:05:22.681Z,98389.78
2022-10-26T04:07:54.133Z,98393.94
2022-10-26T04:10:24.396Z,98374.03
2022-10-26T04:12:52.302Z,98383.19
2022-10-26T04:15:23.584Z,98424.84
2022-10-26T04:17:57.222Z,98388.78
2022-10-26T04:20:26.005Z,98408.56
2022-10-26T04:23:01.542Z,98385.84
2022-10-26T04:25:39.216Z,98376.84
2022-10-26T04:28:09.015Z,98367.34
2022-10-26T04:30:37.687Z,98358.41
2022-10-26T04:33:06.595Z,98368.72
2022-10-26T04:35:35.855Z,98401.91
2022-10-26T04:38:05.699Z,98367.34
2022-10-26T04:40:35.870Z,98383.25
2022-10-26T04:43:04.096Z,98382.66
2022-10-26T04:45:35.638Z,98391.97
2022-10-26T04:48:05.729Z,98376.38
2022-10-26T04:50:34.434Z,98375.13
2022-10-26T04:53:02.983Z,98345.28
2022-10-26T04:55:31.030Z,98333.56
2022-10-26T04:58:01.614Z,98342.78
2022-10-26T05:00:36.051Z,98329.16
2022-10-26T05:03:05.950Z,98340.16
2022-10-26T05:05:38.108Z,98324.84
2022-10-26T05:08:07.286Z,98352.72
2022-10-26T05:10:35.312Z,98342.78
2022-10-26T05:13:04.715Z,98323.88
2022-10-26T05:15:32.919Z,98329.16
2022-10-26T05:18:02.986Z,98314.41
2022-10-26T05:20:32.516Z,98317.72
2022-10-26T05:23:02.197Z,98326.38
2022-10-26T05:25:32.080Z,98309.50
2022-10-26T05:28:00.639Z,98309.25
2022-10-26T05:30:31.215Z,98346.13
2022-10-26T05:33:00.910Z,98308.28
2022-10-26T05:35:29.035Z,98323.88
2022-10-26T05:37:57.203Z,98321.22
2022-10-26T05:40:25.755Z,98320.38
2022-10-26T05:42:54.418Z,98304.22
2022-10-26T05:45:22.592Z,98323.88
2022-10-26T05:47:52.037Z,98325.84
2022-10-26T05:50:20.178Z,98324.19
2022-10-26T05:52:49.218Z,98344.47
2022-10-26T05:55:18.893Z,98333.19
2022-10-26T05:57:47.867Z,98316.91
2022-10-26T06:00:21.290Z,98323.88
2022-10-26T06:03:13.744Z,98309.41
2022-10-26T06:05:51.905Z,98316.91
2022-10-26T06:08:20.786Z,98279.38
2022-10-26T06:10:49.960Z,98265.44
2022-10-26T06:13:19.732Z,98286.72
2022-10-26T06:16:00.519Z,98282.69
2022-10-26T06:18:42.402Z,98279.06
2022-10-26T06:21:20.552Z,98274.06
2022-10-26T06:23:54.604Z,98301.63
2022-10-26T06:26:32.922Z,98302.44
2022-10-26T06:29:13.676Z,98272.63
2022-10-26T06:31:41.658Z,98309.25
2022-10-26T06:34:13.485Z,98307.59
2022-10-26T06:36:42.462Z,98307.75
2022-10-26T06:39:13.612Z,98291.31
2022-10-26T06:41:42.268Z,98287.84
2022-10-26T06:44:13.519Z,98331.50
2022-10-26T06:46:48.648Z,98314.41
2022-10-26T06:49:23.355Z,98299.28
2022-10-26T06:51:58.676Z,98329.16
2022-10-26T06:54:32.614Z,98325.84
2022-10-26T06:57:01.743Z,98325.16
2022-10-26T06:59:40.033Z,98348.94
2022-10-26T07:02:09.951Z,98357.56
2022-10-26T07:04:39.491Z,98353.56
2022-10-26T07:07:07.530Z,98367.34
2022-10-26T07:09:35.370Z,98403.25
2022-10-26T07:12:03.405Z,98408.56
2022-10-26T07:14:31.301Z,98417.19
2022-10-26T07:16:59.280Z,98396.28
2022-10-26T07:19:27.660Z,98393.56
2022-10-26T07:21:59.180Z,98413.56
2022-10-26T07:24:27.452Z,98403.41
2022-10-26T07:26:56.364Z,98384.31
2022-10-26T07:29:28.442Z,98381.00
2022-10-26T07:31:56.693Z,98334.78
2022-10-26T07:34:24.575Z,98370.28
2022-10-26T07:36:52.604Z,98374.03
2022-10-26T07:39:22.232Z,98366.22
2022-10-26T07:41:50.244Z,98393.78
2022-10-26T07:44:19.471Z,98386.28
2022-10-26T07:46:47.342Z,98425.00
2022-10-26T07:49:17.744Z,98419.69
2022-10-26T07:51:47.484Z,98444.75
2022-10-26T07:54:15.666Z,98459.69
2022-10-26T07:56:44.977Z,98524.19
2022-10-26T07:59:13.597Z,98554.28
2022-10-26T08:01:44.075Z,98583.84
2022-10-26T08:04:12.425Z,98612.31
2022-10-26T08:06:40.599Z,98649.53
2022-10-26T08:09:08.469Z,98647.72
2022-10-26T08:11:37.366Z,98657.19
2022-10-26T08:14:06.989Z,98702.94
2022-10-26T08:16:35.285Z,98714.38
2022-10-26T08:19:03.342Z,98693.75
2022-10-26T08:21:39.745Z,98747.88
2022-10-26T08:24:10.996Z,98750.16
2022-10-26T08:26:38.998Z,98738.41
2022-10-26T08:29:10.252Z,98698.00
2022-10-26T08:31:38.547Z,98678.81
2022-10-26T08:34:06.600Z,98648.56
2022-10-26T08:36:34.779Z,98632.25
2022-10-26T08:39:02.723Z,98607.84
2022-10-26T08:41:37.979Z,98588.31
2022-10-26T08:44:14.501Z,98582.84
2022-10-26T08:46:47.532Z,98553.38
2022-10-26T08:49:24.473Z,98562.38
2022-10-26T08:51:57.611Z,98603.78
2022-10-26T08:54:36.398Z,98587.47
2022-10-26T08:57:12.604Z,98538.81
2022-10-26T08:59:47.452Z,98595.00
2022-10-26T09:02:17.079Z,98595.00
2022-10-26T09:04:47.980Z,98631.41
2022-10-26T09:07:28.091Z,98663.94
2022-10-26T09:10:04.951Z,98771.63
2022-10-26T09:12:45.963Z,98825.91
2022-10-26T09:15:29.447Z,98881.25
2022-10-26T09:18:06.367Z,98855.88
2022-10-26T09:20:51.148Z,98860.69
2022-10-26T09:23:39.512Z,98890.03
2022-10-26T09:26:14.605Z,98941.47
2022-10-26T09:28:46.097Z,98942.84
2022-10-26T09:31:18.997Z,98951.69
2022-10-26T09:33:47.215Z,98992.47
2022-10-26T09:36:22.612Z,98994.44
2022-10-26T09:39:06.949Z,98928.50
2022-10-26T09:41:49.737Z,98970.50
2022-10-26T09:44:26.101Z,98941.75
2022-10-26T09:47:03.161Z,98962.41
2022-10-26T09:49:41.303Z,98964.63
2022-10-26T09:54:37.413Z,99037.16
2022-10-26T09:57:06.273Z,99036.47
2022-10-26T09:59:39.255Z,99012.84
2022-10-26T10:02:34.179Z,99078.66
2022-10-26T10:05:02.524Z,99099.09
2022-10-26T10:07:30.369Z,99140.22
2022-10-26T10:10:09.881Z,99121.34
2022-10-26T10:12:37.899Z,99121.34
2022-10-26T10:15:06.537Z,99072.84
2022-10-26T10:17:38.870Z,99029.69
2022-10-26T10:20:13.526Z,99054.63
2022-10-26T10:22:55.972Z,99019.97
2022-10-26T10:27:55.906Z,98902.06
2022-10-26T10:30:28.781Z,98855.66
2022-10-26T10:33:09.659Z,98882.22
2022-10-26T10:35:39.304Z,98889.22
2022-10-26T10:38:08.218Z,98890.88
2022-10-26T10:40:36.457Z,98905.41
2022-10-26T10:43:08.530Z,98885.84
2022-10-26T10:45:37.453Z,98885.97
2022-10-26T10:48:15.623Z,98926.34
2022-10-26T10:50:54.037Z,98878.59
2022-10-26T10:53:27.818Z,98870.75
2022-10-26T10:56:12.976Z,98883.91
2022-10-26T10:58:51.164Z,98831.13
2022-10-26T11:01:23.561Z,98853.56
2022-10-26T11:04:10.578Z,98811.25
2022-10-26T11:06:42.254Z,98823.25
2022-10-26T11:09:13.749Z,98810.41
2022-10-26T11:11:46.383Z,98787.66
2022-10-26T11:14:20.373Z,98808.22
2022-10-26T11:16:52.765Z,98820.75
2022-10-26T11:19:27.145Z,98806.09
2022-10-26T11:21:56.667Z,98832.75
2022-10-26T11:24:31.242Z,98809.59
2022-10-26T11:27:05.235Z,98776.66
2022-10-26T11:29:41.629Z,98782.25
2022-10-26T11:32:17.369Z,98777.31
2022-10-26T11:34:52.567Z,98751.00
2022-10-26T11:37:27.051Z,98756.84
2022-10-26T11:40:03.893Z,98784.47
2022-10-26T11:42:37.675Z,98802.31
2022-10-26T11:45:14.410Z,98785.16
2022-10-26T11:47:49.472Z,98773.31
2022-10-26T11:50:24.083Z,98779.97
2022-10-26T11:52:55.991Z,98795.09
2022-10-26T11:55:24.281Z,98805.09
2022-10-26T11:57:58.400Z,98748.50
2022-10-26T12:00:28.960Z,98719.41
2022-10-26T12:03:02.322Z,98693.47
2022-10-26T12:05:44.112Z,98675.47
2022-10-26T12:08:16.949Z,98633.75
2022-10-26T12:10:51.112Z,98608.25
2022-10-26T12:13:27.457Z,98595.81
2022-10-26T12:16:04.393Z,98584.84
2022-10-26T12:18:55.126Z,98574.28
2022-10-26T12:21:29.584Z,98564.59
2022-10-26T12:24:00.094Z,98569.91
2022-10-26T12:26:52.255Z,98564.06
2022-10-26T12:29:49.334Z,98564.91
2022-10-26T12:32:51.966Z,98537.16
2022-10-26T12:35:43.694Z,98544.81
2022-10-26T12:38:50.732Z,98549.81
2022-10-26T12:41:25.353Z,98566.88
2022-10-26T12:43:58.063Z,98600.03
2022-10-26T12:46:45.560Z,98595.00
2022-10-26T12:50:01.155Z,98588.69
2022-10-26T12:52:32.955Z,98573.22
2022-10-26T12:55:39.739Z,98575.19
2022-10-26T12:58:33.776Z,98597.38
2022-10-26T13:01:36.628Z,98597.50
2022-10-26T13:04:43.596Z,98608.81
2022-10-26T13:07:20.798Z,98625.97
2022-10-26T13:10:00.521Z,98601.69
2022-10-26T13:12:30.774Z,98582.19
2022-10-26T13:15:04.695Z,98599.47
2022-10-26T13:20:08.497Z,98528.38
2022-10-26T13:22:47.698Z,98521.22
2022-10-26T13:25:26.589Z,98525.88
2022-10-26T13:28:04.900Z,98534.50
2022-10-26T13:30:49.850Z,98571.41
2022-10-26T13:33:33.981Z,98516.91
2022-10-26T13:36:08.225Z,98528.38
2022-10-26T13:38:38.517Z,98532.84
2022-10-26T13:41:20.702Z,98527.22
2022-10-26T13:43:49.734Z,98508.59
2022-10-26T13:46:28.618Z,98494.00
2022-10-26T13:49:04.979Z,98479.03
2022-10-26T13:51:42.008Z,98472.06
2022-10-26T13:54:20.880Z,98450.59
2022-10-26T13:57:01.000Z,98429.84
2022-10-26T13:59:31.594Z,98424.53
2022-10-26T14:02:19.239Z,98444.44
2022-10-26T14:04:48.638Z,98434.75
2022-10-26T14:07:23.411Z,98453.09
2022-10-26T14:09:55.918Z,98427.50
2022-10-26T14:12:25.700Z,98442.78
2022-10-26T14:14:54.823Z,98430.50
2022-10-26T14:17:27.027Z,98449.75
2022-10-26T14:19:55.587Z,98427.50
2022-10-26T14:22:27.518Z,98406.44
2022-10-26T14:24:57.051Z,98448.09
2022-10-26T14:27:26.908Z,98424.16
2022-10-26T14:32:46.034Z,98409.91
2022-10-26T14:35:14.828Z,98399.63
2022-10-26T14:37:47.509Z,98381.00
2022-10-26T14:40:19.392Z,98372.47
2022-10-26T14:42:51.388Z,98353.09
2022-10-26T14:45:47.492Z,98383.19
2022-10-26T14:48:23.668Z,98330.47
2022-10-26T14:51:09.672Z,98359.78
2022-10-26T14:53:40.589Z,98318.88
2022-10-26T14:56:40.772Z,98298.81
2022-10-26T14:59:14.597Z,98298.50
2022-10-26T15:01:51.044Z,98337.50
2022-10-26T15:04:32.852Z,98319.19
2022-10-26T15:07:10.415Z,98296.16
2022-10-26T15:09:44.464Z,98289.88
2022-10-26T15:12:32.718Z,98269.59
2022-10-26T15:15:10.712Z,98259.00
2022-10-26T15:17:42.595Z,98278.75
2022-10-26T15:20:18.118Z,98256.81
2022-10-26T15:22:52.544Z,98252.88
2022-10-26T15:25:23.579Z,98245.75
2022-10-26T15:27:52.377Z,98254.53
2022-10-26T15:30:23.846Z,98243.56
2022-10-26T15:32:53.019Z,98228.25
2022-10-26T15:35:31.361Z,98244.25
2022-10-26T15:38:01.229Z,98226.69
2022-10-26T15:40:31.355Z,98227.44
2022-10-26T15:43:01.362Z,98244.41
2022-10-26T15:45:33.327Z,98225.91
2022-10-26T15:48:21.256Z,98244.25
2022-10-26T15:50:50.733Z,98230.47
2022-10-26T15:53:21.993Z,98214.03
2022-10-26T15:55:51.287Z,98240.91
2022-10-26T15:58:19.555Z,98238.13
2022-10-26T16:00:47.568Z,98214.69
2022-10-26T16:03:19.598Z,98206.38
2022-10-26T16:05:47.898Z,98204.41
2022-10-26T16:08:19.118Z,98184.47
2022-10-26T16:10:48.631Z,98203.06
2022-10-26T16:13:16.828Z,98193.97
2022-10-26T16:15:45.428Z,98188.16
2022-10-26T16:18:13.559Z,98171.91
2022-10-26T16:20:41.975Z,98155.16
2022-10-26T16:23:21.152Z,98140.38
2022-10-26T16:25:50.584Z,98174.22
2022-10-26T16:28:18.544Z,98168.25
2022-10-26T16:30:46.758Z,98178.53
2022-10-26T16:33:15.321Z,98162.59
2022-10-26T16:35:43.513Z,98149.19
2022-10-26T16:38:11.343Z,98134.59
2022-10-26T16:40:42.624Z,98150.34
2022-10-26T16:43:12.379Z,98150.50
2022-10-26T16:45:41.602Z,98169.56
2022-10-26T16:48:14.514Z,98163.28
2022-10-26T16:50:42.458Z,98150.84
2022-10-26T16:53:10.433Z,98169.91
2022-10-26T16:55:38.398Z,98158.81
2022-10-26T16:58:06.398Z,98170.75
2022-10-26T17:00:37.628Z,98182.03
2022-10-26T17:03:06.058Z,98147.84
2022-10-26T17:05:34.602Z,98146.56
2022-10-26T17:08:02.650Z,98119.63
2022-10-26T17:10:30.700Z,98117.81
2022-10-26T17:12:58.613Z,98132.78
2022-10-26T17:15:29.123Z,98115.53
2022-10-26T17:17:58.793Z,98137.09
2022-10-26T17:20:27.187Z,98108.13
2022-10-26T17:22:57.577Z,98110.56
2022-10-26T17:25:25.630Z,98108.06
2022-10-26T17:27:53.618Z,98131.44
2022-10-26T17:30:21.564Z,98120.84
2022-10-26T17:32:49.734Z,98114.03
2022-10-26T17:35:20.066Z,98135.59
2022-10-26T17:37:48.536Z,98119.50
2022-10-26T17:40:16.954Z,98128.47
2022-10-26T17:42:45.137Z,98116.53
2022-10-26T17:45:13.210Z,98140.41
2022-10-26T17:47:41.143Z,98121.53
2022-10-26T17:50:09.728Z,98099.84
2022-10-26T17:52:39.090Z,98119.19
2022-10-26T17:55:07.556Z,98109.72
2022-10-26T17:57:38.009Z,98104.88
2022-10-26T18:00:06.893Z,98113.22
2022-10-26T18:02:37.512Z,98116.53
2022-10-26T18:05:06.899Z,98094.41
2022-10-26T18:07:35.823Z,98069.03
2022-10-26T18:10:19.858Z,98093.97
2022-10-26T18:12:53.880Z,98107.91
2022-10-26T18:15:24.004Z,98095.78
2022-10-26T18:17:56.782Z,98085.94
2022-10-26T18:20:26.520Z,98106.25
2022-10-26T18:22:54.359Z,98147.38
2022-10-26T18:25:24.786Z,98192.47
2022-10-26T18:27:52.903Z,98188.81
2022-10-26T18:30:20.862Z,98203.28
2022-10-26T18:32:50.461Z,98176.88
2022-10-26T18:35:21.924Z,98159.63
2022-10-26T18:37:50.134Z,98157.97
2022-10-26T18:40:18.610Z,98136.34
2022-10-26T18:42:47.938Z,98144.38
2022-10-26T18:45:16.034Z,98132.13
2022-10-26T18:47:44.314Z,98125.97
2022-10-26T18:50:12.541Z,98103.22
2022-10-26T18:52:40.528Z,98128.13
2022-10-26T18:55:09.852Z,98129.63
2022-10-26T18:57:37.828Z,98121.84
2022-10-26T19:00:14.685Z,98120.16
2022-10-26T19:02:42.831Z,98088.91
2022-10-26T19:05:10.971Z,98110.25
2022-10-26T19:07:41.847Z,98089.50
2022-10-26T19:10:13.380Z,98111.41
2022-10-26T19:12:41.359Z,98099.84
2022-10-26T19:15:11.269Z,98122.50
2022-10-26T19:17:39.493Z,98071.00
2022-10-26T19:20:12.984Z,98102.63
2022-10-26T19:22:44.225Z,98100.97
2022-10-26T19:25:13.848Z,98071.19
2022-10-26T19:27:41.863Z,98090.81
2022-10-26T19:30:12.382Z,98081.94
2022-10-26T19:32:43.661Z,98129.09
2022-10-26T19:35:11.835Z,98121.53
2022-10-26T19:37:42.654Z,98111.84
2022-10-26T19:40:11.794Z,98135.28
2022-10-26T19:42:40.038Z,98126.44
2022-10-26T19:45:11.353Z,98084.69
2022-10-26T19:47:40.779Z,98127.81
2022-10-26T19:50:09.384Z,98102.66
2022-10-26T19:52:37.691Z,98124.84
2022-10-26T19:55:06.447Z,98128.94
2022-10-26T19:57:37.998Z,98157.66
2022-10-26T20:00:07.077Z,98197.09
2022-10-26T20:02:37.936Z,98176.56
2022-10-26T20:05:07.855Z,98171.59
2022-10-26T20:07:35.679Z,98205.41
2022-10-26T20:10:03.761Z,98193.59
2022-10-26T20:12:31.672Z,98212.75
2022-10-26T20:14:59.744Z,98192.84
2022-10-26T20:17:28.524Z,98218.06
2022-10-26T20:19:57.157Z,98198.13
2022-10-26T20:22:26.425Z,98221.81
2022-10-26T20:24:54.371Z,98221.16
2022-10-26T20:27:22.357Z,98245.59
2022-10-26T20:29:50.385Z,98252.03
2022-10-26T20:32:18.470Z,98214.91
2022-10-26T20:34:46.552Z,98243.94
2022-10-26T20:37:15.149Z,98236.13
2022-10-26T20:39:45.448Z,98204.56
2022-10-26T20:42:23.509Z,98216.38
2022-10-26T20:44:56.904Z,98213.72
2022-10-26T20:47:25.599Z,98197.47
2022-10-26T20:49:53.933Z,98187.16
2022-10-26T20:52:28.860Z,98152.53
2022-10-26T20:55:05.214Z,98146.41
2022-10-26T20:57:36.038Z,98171.91
2022-10-26T21:00:09.016Z,98189.81
2022-10-26T21:02:37.287Z,98177.19
2022-10-26T21:05:06.177Z,98173.25
2022-10-26T21:07:34.263Z,98183.22
2022-10-26T21:10:03.464Z,98140.53
2022-10-26T21:12:31.493Z,98167.94
2022-10-26T21:14:59.603Z,98122.16
2022-10-26T21:17:27.455Z,98150.69
2022-10-26T21:19:55.437Z,98137.94
2022-10-26T21:22:23.387Z,98107.59
2022-10-26T21:24:51.234Z,98095.66
2022-10-26T21:27:20.745Z,98055.00
2022-10-26T21:29:48.724Z,98075.03
2022-10-26T21:32:19.476Z,98050.84
2022-10-26T21:34:47.435Z,98082.69
2022-10-26T21:37:15.254Z,98088.97
2022-10-26T21:39:43.167Z,98074.19
2022-10-26T21:42:11.307Z,98103.59
2022-10-26T21:44:41.823Z,98111.25
2022-10-26T21:47:10.696Z,98076.34
2022-10-26T21:49:39.049Z,98089.50
2022-10-26T21:52:08.334Z,98094.56
2022-10-26T21:54:36.204Z,98116.53
2022-10-26T21:57:04.212Z,98082.84
2022-10-26T21:59:32.177Z,98033.09
2022-10-26T22:02:01.704Z,98041.72
2022-10-26T22:04:29.770Z,98057.81
2022-10-26T22:06:57.689Z,98077.69
2022-10-26T22:09:25.696Z,98090.50
2022-10-26T22:11:53.806Z,98090.50
2022-10-26T22:14:21.942Z,98085.34
2022-10-26T22:16:49.877Z,98087.31
2022-10-26T22:19:19.686Z,98081.03
2022-10-26T22:21:47.692Z,98061.13
2022-10-26T22:24:16.279Z,98031.94
2022-10-26T22:26:44.306Z,98055.00
2022-10-26T22:29:12.240Z,98090.66
2022-10-26T22:31:41.637Z,98092.31
2022-10-26T22:34:15.955Z,98058.63
2022-10-26T22:36:46.006Z,98040.56
2022-10-26T22:39:13.960Z,98050.84
2022-10-26T22:41:41.813Z,98042.22
2022-10-26T22:44:10.132Z,98051.69
2022-10-26T22:46:37.987Z,98096.63
2022-10-26T22:49:05.909Z,98092.47
2022-10-26T22:51:35.527Z,98104.44
2022-10-26T22:54:05.946Z,98110.69
2022-10-26T22:56:35.893Z,98103.72
2022-10-26T22:59:04.054Z,98107.75
2022-10-26T23:01:34.316Z,98103.88
2022-10-26T23:04:02.352Z,98089.09
2022-10-26T23:06:31.986Z,98098.31
2022-10-26T23:09:00.172Z,98091.75
2022-10-26T23:11:30.501Z,98084.50
2022-10-26T23:13:59.740Z,98071.56
2022-10-26T23:16:28.779Z,98074.06
2022-10-26T23:18:57.138Z,98064.91
2022-10-26T23:23:54.974Z,98081.72
2022-10-26T23:26:23.524Z,98052.16
2022-10-26T23:28:52.967Z,98068.09
2022-10-26T23:31:22.977Z,98074.06
2022-10-26T23:33:51.652Z,98090.50
2022-10-26T23:36:20.114Z,98104.28
2022-10-26T23:38:48.409Z,98123.66
2022-10-26T23:41:16.822Z,98098.16
2022-10-26T23:43:44.913Z,98088.66
2022-10-26T23:46:14.211Z,98065.91
2022-10-26T23:48:42.362Z,98087.31
2022-10-26T23:51:10.659Z,98078.66
2022-10-26T23:53:38.594Z,98067.56
2022-10-26T23:56:07.290Z,98100.66
2022-10-26T23:58:35.242Z,98148.06
